sensor_id;sensor_type;location;lat;lon;timestamp;P1;durP1;ratioP1;P2;durP2;ratioP2
1366;SDS011;16877;48.810;9.282;2023-04-25T00:01:44;2.30;;;1.60;;
1366;SDS011;16877;48.810;9.282;2023-04-25T00:04:17;2.90;;;1.43;;
1366;SDS011;16877;48.810;9.282;2023-04-25T00:06:46;2.50;;;1.60;;
1366;SDS011;16877;48.810;9.282;2023-04-25T00:09:14;3.00;;;1.40;;
1366;SDS011;16877;48.810;9.282;2023-04-25T00:11:41;3.40;;;1.10;;
1366;SDS011;16877;48.810;9.282;2023-04-25T00:14:09;3.07;;;1.50;;
1366;SDS011;16877;48.810;9.282;2023-04-25T00:16:36;2.10;;;1.10;;
1366;SDS011;16877;48.810;9.282;2023-04-25T00:19:04;2.10;;;1.10;;
1366;SDS011;16877;48.810;9.282;2023-04-25T00:21:33;2.10;;;1.07;;
1366;SDS011;16877;48.810;9.282;2023-04-25T00:24:00;2.10;;;1.20;;
1366;SDS011;16877;48.810;9.282;2023-04-25T00:26:28;2.90;;;1.23;;
1366;SDS011;16877;48.810;9.282;2023-04-25T00:28:55;3.17;;;1.10;;
1366;SDS011;16877;48.810;9.282;2023-04-25T00:31:23;6.00;;;1.57;;
1366;SDS011;16877;48.810;9.282;2023-04-25T00:33:50;2.10;;;1.10;;
1366;SDS011;16877;48.810;9.282;2023-04-25T00:36:18;2.20;;;1.00;;
1366;SDS011;16877;48.810;9.282;2023-04-25T00:38:47;2.13;;;1.10;;
1366;SDS011;16877;48.810;9.282;2023-04-25T00:41:14;2.63;;;1.17;;
1366;SDS011;16877;48.810;9.282;2023-04-25T00:43:42;2.20;;;1.17;;
1366;SDS011;16877;48.810;9.282;2023-04-25T00:46:11;2.20;;;1.20;;
1366;SDS011;16877;48.810;9.282;2023-04-25T00:48:38;2.87;;;1.20;;
1366;SDS011;16877;48.810;9.282;2023-04-25T00:51:06;1.97;;;1.10;;
1366;SDS011;16877;48.810;9.282;2023-04-25T00:53:33;1.90;;;1.03;;
1366;SDS011;16877;48.810;9.282;2023-04-25T00:56:02;2.60;;;1.30;;
1366;SDS011;16877;48.810;9.282;2023-04-25T00:58:30;3.00;;;1.57;;
1366;SDS011;16877;48.810;9.282;2023-04-25T01:00:58;1.90;;;1.00;;
1366;SDS011;16877;48.810;9.282;2023-04-25T01:03:26;2.13;;;1.40;;
1366;SDS011;16877;48.810;9.282;2023-04-25T01:05:53;2.20;;;1.10;;
1366;SDS011;16877;48.810;9.282;2023-04-25T01:08:21;2.23;;;1.40;;
1366;SDS011;16877;48.810;9.282;2023-04-25T01:10:51;2.87;;;1.77;;
1366;SDS011;16877;48.810;9.282;2023-04-25T01:13:20;2.47;;;1.80;;
1366;SDS011;16877;48.810;9.282;2023-04-25T01:15:48;2.67;;;1.63;;
1366;SDS011;16877;48.810;9.282;2023-04-25T01:18:15;2.90;;;1.20;;
1366;SDS011;16877;48.810;9.282;2023-04-25T01:20:43;2.60;;;1.20;;
1366;SDS011;16877;48.810;9.282;2023-04-25T01:23:13;2.90;;;1.60;;
1366;SDS011;16877;48.810;9.282;2023-04-25T01:25:40;2.30;;;1.40;;
1366;SDS011;16877;48.810;9.282;2023-04-25T01:28:08;2.77;;;1.33;;
1366;SDS011;16877;48.810;9.282;2023-04-25T01:30:35;2.37;;;1.40;;
1366;SDS011;16877;48.810;9.282;2023-04-25T01:33:04;2.50;;;1.50;;
1366;SDS011;16877;48.810;9.282;2023-04-25T01:35:34;2.13;;;1.30;;
1366;SDS011;16877;48.810;9.282;2023-04-25T01:38:05;3.63;;;2.00;;
1366;SDS011;16877;48.810;9.282;2023-04-25T01:40:34;1.97;;;1.13;;
1366;SDS011;16877;48.810;9.282;2023-04-25T01:43:05;3.50;;;1.67;;
1366;SDS011;16877;48.810;9.282;2023-04-25T01:45:33;2.80;;;1.60;;
1366;SDS011;16877;48.810;9.282;2023-04-25T01:48:01;2.00;;;1.30;;
1366;SDS011;16877;48.810;9.282;2023-04-25T01:50:29;2.80;;;1.73;;
1366;SDS011;16877;48.810;9.282;2023-04-25T01:52:56;2.40;;;1.43;;
1366;SDS011;16877;48.810;9.282;2023-04-25T01:55:24;2.50;;;1.57;;
1366;SDS011;16877;48.810;9.282;2023-04-25T01:57:53;3.07;;;1.90;;
1366;SDS011;16877;48.810;9.282;2023-04-25T02:00:27;2.90;;;1.60;;
1366;SDS011;16877;48.810;9.282;2023-04-25T02:02:57;2.27;;;1.40;;
1366;SDS011;16877;48.810;9.282;2023-04-25T02:05:24;2.40;;;1.57;;
1366;SDS011;16877;48.810;9.282;2023-04-25T02:07:51;3.10;;;1.60;;
1366;SDS011;16877;48.810;9.282;2023-04-25T02:10:19;2.63;;;1.60;;
1366;SDS011;16877;48.810;9.282;2023-04-25T02:12:46;4.00;;;1.60;;
1366;SDS011;16877;48.810;9.282;2023-04-25T02:15:15;6.23;;;2.00;;
1366;SDS011;16877;48.810;9.282;2023-04-25T02:17:44;3.70;;;2.00;;
1366;SDS011;16877;48.810;9.282;2023-04-25T02:20:12;3.07;;;1.97;;
1366;SDS011;16877;48.810;9.282;2023-04-25T02:22:41;2.67;;;1.47;;
1366;SDS011;16877;48.810;9.282;2023-04-25T02:25:09;2.60;;;1.87;;
1366;SDS011;16877;48.810;9.282;2023-04-25T02:27:38;2.47;;;1.43;;
1366;SDS011;16877;48.810;9.282;2023-04-25T02:30:05;2.90;;;1.80;;
1366;SDS011;16877;48.810;9.282;2023-04-25T02:32:35;4.17;;;1.80;;
1366;SDS011;16877;48.810;9.282;2023-04-25T02:35:03;2.77;;;1.50;;
1366;SDS011;16877;48.810;9.282;2023-04-25T02:37:31;2.47;;;1.97;;
1366;SDS011;16877;48.810;9.282;2023-04-25T02:39:58;3.73;;;2.30;;
1366;SDS011;16877;48.810;9.282;2023-04-25T02:42:26;3.00;;;1.90;;
1366;SDS011;16877;48.810;9.282;2023-04-25T02:44:53;2.73;;;1.60;;
1366;SDS011;16877;48.810;9.282;2023-04-25T02:47:21;2.47;;;1.77;;
1366;SDS011;16877;48.810;9.282;2023-04-25T02:49:50;2.50;;;1.77;;
1366;SDS011;16877;48.810;9.282;2023-04-25T02:52:17;2.77;;;1.77;;
1366;SDS011;16877;48.810;9.282;2023-04-25T02:54:45;3.60;;;1.97;;
1366;SDS011;16877;48.810;9.282;2023-04-25T02:57:12;2.50;;;1.70;;
1366;SDS011;16877;48.810;9.282;2023-04-25T02:59:40;4.23;;;1.87;;
1366;SDS011;16877;48.810;9.282;2023-04-25T03:02:07;3.53;;;1.70;;
1366;SDS011;16877;48.810;9.282;2023-04-25T03:04:35;3.50;;;2.03;;
1366;SDS011;16877;48.810;9.282;2023-04-25T03:07:04;2.30;;;1.60;;
1366;SDS011;16877;48.810;9.282;2023-04-25T03:09:32;3.47;;;1.90;;
1366;SDS011;16877;48.810;9.282;2023-04-25T03:11:59;3.03;;;1.83;;
1366;SDS011;16877;48.810;9.282;2023-04-25T03:14:27;2.57;;;1.87;;
1366;SDS011;16877;48.810;9.282;2023-04-25T03:16:55;3.13;;;1.73;;
1366;SDS011;16877;48.810;9.282;2023-04-25T03:19:22;2.80;;;1.70;;
1366;SDS011;16877;48.810;9.282;2023-04-25T03:21:49;3.77;;;1.87;;
1366;SDS011;16877;48.810;9.282;2023-04-25T03:24:18;3.00;;;1.77;;
1366;SDS011;16877;48.810;9.282;2023-04-25T03:26:45;3.20;;;1.90;;
1366;SDS011;16877;48.810;9.282;2023-04-25T03:29:13;2.93;;;1.83;;
1366;SDS011;16877;48.810;9.282;2023-04-25T03:31:40;2.83;;;1.70;;
1366;SDS011;16877;48.810;9.282;2023-04-25T03:34:08;3.30;;;1.80;;
1366;SDS011;16877;48.810;9.282;2023-04-25T03:36:35;2.77;;;1.83;;
1366;SDS011;16877;48.810;9.282;2023-04-25T03:39:03;2.80;;;1.97;;
1366;SDS011;16877;48.810;9.282;2023-04-25T03:41:32;3.47;;;1.70;;
1366;SDS011;16877;48.810;9.282;2023-04-25T03:44:00;3.50;;;1.83;;
1366;SDS011;16877;48.810;9.282;2023-04-25T03:46:27;3.07;;;1.87;;
1366;SDS011;16877;48.810;9.282;2023-04-25T03:48:55;3.60;;;1.73;;
1366;SDS011;16877;48.810;9.282;2023-04-25T03:51:22;3.77;;;1.40;;
1366;SDS011;16877;48.810;9.282;2023-04-25T03:53:51;3.00;;;1.80;;
1366;SDS011;16877;48.810;9.282;2023-04-25T03:56:18;2.60;;;1.40;;
1366;SDS011;16877;48.810;9.282;2023-04-25T03:58:47;2.67;;;1.73;;
1366;SDS011;16877;48.810;9.282;2023-04-25T04:01:14;2.10;;;1.40;;
1366;SDS011;16877;48.810;9.282;2023-04-25T04:03:41;4.37;;;1.90;;
1366;SDS011;16877;48.810;9.282;2023-04-25T04:06:09;2.23;;;1.40;;
1366;SDS011;16877;48.810;9.282;2023-04-25T04:08:38;2.60;;;1.70;;
1366;SDS011;16877;48.810;9.282;2023-04-25T04:11:05;2.50;;;1.57;;
1366;SDS011;16877;48.810;9.282;2023-04-25T04:13:33;4.23;;;1.70;;
1366;SDS011;16877;48.810;9.282;2023-04-25T04:16:02;2.70;;;1.73;;
1366;SDS011;16877;48.810;9.282;2023-04-25T04:18:30;3.27;;;1.67;;
1366;SDS011;16877;48.810;9.282;2023-04-25T04:20:58;2.70;;;1.83;;
1366;SDS011;16877;48.810;9.282;2023-04-25T04:23:25;3.30;;;1.97;;
1366;SDS011;16877;48.810;9.282;2023-04-25T04:25:53;2.63;;;1.47;;
1366;SDS011;16877;48.810;9.282;2023-04-25T04:28:21;2.93;;;1.50;;
1366;SDS011;16877;48.810;9.282;2023-04-25T04:30:48;3.60;;;1.70;;
1366;SDS011;16877;48.810;9.282;2023-04-25T04:33:17;3.63;;;1.50;;
1366;SDS011;16877;48.810;9.282;2023-04-25T04:35:45;4.07;;;2.10;;
1366;SDS011;16877;48.810;9.282;2023-04-25T04:38:13;2.73;;;1.50;;
1366;SDS011;16877;48.810;9.282;2023-04-25T04:40:41;2.37;;;1.70;;
1366;SDS011;16877;48.810;9.282;2023-04-25T04:43:08;3.80;;;1.80;;
1366;SDS011;16877;48.810;9.282;2023-04-25T04:45:35;3.13;;;1.53;;
1366;SDS011;16877;48.810;9.282;2023-04-25T04:48:03;2.73;;;1.70;;
1366;SDS011;16877;48.810;9.282;2023-04-25T04:50:32;3.20;;;1.87;;
1366;SDS011;16877;48.810;9.282;2023-04-25T04:53:00;4.00;;;1.67;;
1366;SDS011;16877;48.810;9.282;2023-04-25T04:55:28;2.97;;;1.80;;
1366;SDS011;16877;48.810;9.282;2023-04-25T04:57:56;3.57;;;1.67;;
1366;SDS011;16877;48.810;9.282;2023-04-25T05:00:23;3.47;;;1.80;;
1366;SDS011;16877;48.810;9.282;2023-04-25T05:02:51;5.53;;;1.90;;
1366;SDS011;16877;48.810;9.282;2023-04-25T05:05:19;2.73;;;1.83;;
1366;SDS011;16877;48.810;9.282;2023-04-25T05:07:47;3.57;;;2.33;;
1366;SDS011;16877;48.810;9.282;2023-04-25T05:10:16;3.43;;;1.90;;
1366;SDS011;16877;48.810;9.282;2023-04-25T05:12:44;2.33;;;1.70;;
1366;SDS011;16877;48.810;9.282;2023-04-25T05:15:11;4.10;;;2.00;;
1366;SDS011;16877;48.810;9.282;2023-04-25T05:17:38;2.87;;;1.90;;
1366;SDS011;16877;48.810;9.282;2023-04-25T05:20:06;3.67;;;2.10;;
1366;SDS011;16877;48.810;9.282;2023-04-25T05:22:34;2.83;;;1.73;;
1366;SDS011;16877;48.810;9.282;2023-04-25T05:25:05;2.40;;;1.80;;
1366;SDS011;16877;48.810;9.282;2023-04-25T05:27:32;3.43;;;1.97;;
1366;SDS011;16877;48.810;9.282;2023-04-25T05:29:59;3.63;;;1.77;;
1366;SDS011;16877;48.810;9.282;2023-04-25T05:32:30;3.03;;;1.80;;
1366;SDS011;16877;48.810;9.282;2023-04-25T05:34:58;4.30;;;2.13;;
1366;SDS011;16877;48.810;9.282;2023-04-25T05:37:29;4.50;;;2.70;;
1366;SDS011;16877;48.810;9.282;2023-04-25T05:39:57;3.93;;;1.90;;
1366;SDS011;16877;48.810;9.282;2023-04-25T05:42:28;3.70;;;2.10;;
1366;SDS011;16877;48.810;9.282;2023-04-25T05:44:56;6.70;;;2.20;;
1366;SDS011;16877;48.810;9.282;2023-04-25T05:47:23;3.10;;;1.90;;
1366;SDS011;16877;48.810;9.282;2023-04-25T05:49:50;2.87;;;1.60;;
1366;SDS011;16877;48.810;9.282;2023-04-25T05:52:18;3.60;;;2.10;;
1366;SDS011;16877;48.810;9.282;2023-04-25T05:54:45;3.07;;;2.00;;
1366;SDS011;16877;48.810;9.282;2023-04-25T05:57:18;3.30;;;2.03;;
1366;SDS011;16877;48.810;9.282;2023-04-25T05:59:48;3.50;;;2.23;;
1366;SDS011;16877;48.810;9.282;2023-04-25T06:02:15;4.10;;;2.53;;
1366;SDS011;16877;48.810;9.282;2023-04-25T06:04:42;2.93;;;2.00;;
1366;SDS011;16877;48.810;9.282;2023-04-25T06:07:10;3.40;;;2.47;;
1366;SDS011;16877;48.810;9.282;2023-04-25T06:09:38;3.60;;;2.13;;
1366;SDS011;16877;48.810;9.282;2023-04-25T06:12:06;2.90;;;1.90;;
1366;SDS011;16877;48.810;9.282;2023-04-25T06:14:33;2.43;;;1.70;;
1366;SDS011;16877;48.810;9.282;2023-04-25T06:17:02;2.93;;;1.53;;
1366;SDS011;16877;48.810;9.282;2023-04-25T06:19:33;2.37;;;1.83;;
1366;SDS011;16877;48.810;9.282;2023-04-25T06:22:02;2.50;;;1.90;;
1366;SDS011;16877;48.810;9.282;2023-04-25T06:24:29;3.60;;;2.37;;
1366;SDS011;16877;48.810;9.282;2023-04-25T06:26:57;3.70;;;2.10;;
1366;SDS011;16877;48.810;9.282;2023-04-25T06:29:27;4.13;;;2.03;;
1366;SDS011;16877;48.810;9.282;2023-04-25T06:31:54;2.63;;;1.70;;
1366;SDS011;16877;48.810;9.282;2023-04-25T06:34:23;2.83;;;2.23;;
1366;SDS011;16877;48.810;9.282;2023-04-25T06:36:51;2.70;;;1.97;;
1366;SDS011;16877;48.810;9.282;2023-04-25T06:39:18;6.20;;;1.90;;
1366;SDS011;16877;48.810;9.282;2023-04-25T06:41:48;4.10;;;1.73;;
1366;SDS011;16877;48.810;9.282;2023-04-25T06:44:15;2.30;;;1.57;;
1366;SDS011;16877;48.810;9.282;2023-04-25T06:46:43;3.50;;;2.13;;
1366;SDS011;16877;48.810;9.282;2023-04-25T06:49:10;2.60;;;1.70;;
1366;SDS011;16877;48.810;9.282;2023-04-25T06:51:40;2.77;;;1.40;;
1366;SDS011;16877;48.810;9.282;2023-04-25T06:54:07;3.00;;;1.80;;
1366;SDS011;16877;48.810;9.282;2023-04-25T06:56:35;2.77;;;1.93;;
1366;SDS011;16877;48.810;9.282;2023-04-25T06:59:03;2.50;;;2.00;;
1366;SDS011;16877;48.810;9.282;2023-04-25T07:01:30;2.90;;;2.13;;
1366;SDS011;16877;48.810;9.282;2023-04-25T07:03:57;2.10;;;1.30;;
1366;SDS011;16877;48.810;9.282;2023-04-25T07:06:25;3.20;;;1.90;;
1366;SDS011;16877;48.810;9.282;2023-04-25T07:08:54;3.70;;;2.27;;
1366;SDS011;16877;48.810;9.282;2023-04-25T07:11:22;2.90;;;1.47;;
1366;SDS011;16877;48.810;9.282;2023-04-25T07:13:49;3.93;;;1.67;;
1366;SDS011;16877;48.810;9.282;2023-04-25T07:16:17;2.60;;;1.90;;
1366;SDS011;16877;48.810;9.282;2023-04-25T07:18:44;2.00;;;1.30;;
1366;SDS011;16877;48.810;9.282;2023-04-25T07:21:11;2.70;;;1.90;;
1366;SDS011;16877;48.810;9.282;2023-04-25T07:23:39;3.30;;;1.80;;
1366;SDS011;16877;48.810;9.282;2023-04-25T07:26:08;2.50;;;2.00;;
1366;SDS011;16877;48.810;9.282;2023-04-25T07:28:35;2.20;;;1.47;;
1366;SDS011;16877;48.810;9.282;2023-04-25T07:31:02;2.53;;;1.57;;
1366;SDS011;16877;48.810;9.282;2023-04-25T07:33:30;3.00;;;1.73;;
1366;SDS011;16877;48.810;9.282;2023-04-25T07:35:58;2.07;;;1.53;;
1366;SDS011;16877;48.810;9.282;2023-04-25T07:38:25;2.70;;;1.87;;
1366;SDS011;16877;48.810;9.282;2023-04-25T07:40:53;2.40;;;1.60;;
1366;SDS011;16877;48.810;9.282;2023-04-25T07:46:13;2.50;;;1.40;;
1366;SDS011;16877;48.810;9.282;2023-04-25T07:48:41;2.50;;;1.53;;
1366;SDS011;16877;48.810;9.282;2023-04-25T07:51:08;3.30;;;1.80;;
1366;SDS011;16877;48.810;9.282;2023-04-25T07:53:35;3.57;;;2.33;;
1366;SDS011;16877;48.810;9.282;2023-04-25T07:56:03;3.20;;;1.90;;
1366;SDS011;16877;48.810;9.282;2023-04-25T07:58:31;4.10;;;2.30;;
1366;SDS011;16877;48.810;9.282;2023-04-25T08:01:00;3.57;;;2.20;;
1366;SDS011;16877;48.810;9.282;2023-04-25T08:03:28;2.87;;;2.20;;
1366;SDS011;16877;48.810;9.282;2023-04-25T08:05:56;2.73;;;2.17;;
1366;SDS011;16877;48.810;9.282;2023-04-25T08:08:24;3.10;;;2.50;;
1366;SDS011;16877;48.810;9.282;2023-04-25T08:10:54;3.80;;;2.17;;
1366;SDS011;16877;48.810;9.282;2023-04-25T08:13:22;2.53;;;1.97;;
1366;SDS011;16877;48.810;9.282;2023-04-25T08:15:50;4.30;;;2.30;;
1366;SDS011;16877;48.810;9.282;2023-04-25T08:18:19;3.73;;;2.17;;
1366;SDS011;16877;48.810;9.282;2023-04-25T08:20:47;4.07;;;2.90;;
1366;SDS011;16877;48.810;9.282;2023-04-25T08:23:20;3.60;;;2.63;;
1366;SDS011;16877;48.810;9.282;2023-04-25T08:25:47;3.50;;;2.47;;
1366;SDS011;16877;48.810;9.282;2023-04-25T08:28:17;4.93;;;2.40;;
1366;SDS011;16877;48.810;9.282;2023-04-25T08:30:44;3.30;;;3.00;;
1366;SDS011;16877;48.810;9.282;2023-04-25T08:33:24;3.30;;;2.30;;
1366;SDS011;16877;48.810;9.282;2023-04-25T08:36:01;4.03;;;2.07;;
1366;SDS011;16877;48.810;9.282;2023-04-25T08:38:30;4.10;;;2.73;;
1366;SDS011;16877;48.810;9.282;2023-04-25T08:41:02;3.00;;;2.57;;
1366;SDS011;16877;48.810;9.282;2023-04-25T08:43:29;3.30;;;2.50;;
1366;SDS011;16877;48.810;9.282;2023-04-25T08:46:01;3.47;;;2.73;;
1366;SDS011;16877;48.810;9.282;2023-04-25T08:48:34;3.10;;;2.60;;
1366;SDS011;16877;48.810;9.282;2023-04-25T08:51:20;3.10;;;2.17;;
1366;SDS011;16877;48.810;9.282;2023-04-25T08:54:06;3.67;;;2.70;;
1366;SDS011;16877;48.810;9.282;2023-04-25T08:56:41;4.27;;;2.90;;
1366;SDS011;16877;48.810;9.282;2023-04-25T08:59:12;3.70;;;2.97;;
1366;SDS011;16877;48.810;9.282;2023-04-25T09:01:46;4.93;;;2.70;;
1366;SDS011;16877;48.810;9.282;2023-04-25T09:04:17;3.83;;;3.03;;
1366;SDS011;16877;48.810;9.282;2023-04-25T09:06:45;3.50;;;2.70;;
1366;SDS011;16877;48.810;9.282;2023-04-25T09:09:18;3.20;;;2.60;;
1366;SDS011;16877;48.810;9.282;2023-04-25T09:11:46;2.97;;;2.37;;
1366;SDS011;16877;48.810;9.282;2023-04-25T09:14:14;3.97;;;2.70;;
1366;SDS011;16877;48.810;9.282;2023-04-25T09:16:58;3.50;;;2.30;;
1366;SDS011;16877;48.810;9.282;2023-04-25T09:19:30;3.20;;;2.23;;
1366;SDS011;16877;48.810;9.282;2023-04-25T09:22:00;3.43;;;2.50;;
1366;SDS011;16877;48.810;9.282;2023-04-25T09:24:32;3.47;;;2.40;;
1366;SDS011;16877;48.810;9.282;2023-04-25T09:27:02;3.53;;;1.70;;
1366;SDS011;16877;48.810;9.282;2023-04-25T09:29:31;2.70;;;2.17;;
1366;SDS011;16877;48.810;9.282;2023-04-25T09:32:11;3.00;;;1.93;;
1366;SDS011;16877;48.810;9.282;2023-04-25T09:34:56;2.90;;;2.00;;
1366;SDS011;16877;48.810;9.282;2023-04-25T09:37:26;2.57;;;1.70;;
1366;SDS011;16877;48.810;9.282;2023-04-25T09:40:10;2.67;;;1.73;;
1366;SDS011;16877;48.810;9.282;2023-04-25T09:42:44;3.00;;;2.07;;
1366;SDS011;16877;48.810;9.282;2023-04-25T09:45:15;4.10;;;2.20;;
1366;SDS011;16877;48.810;9.282;2023-04-25T09:47:56;4.30;;;2.60;;
1366;SDS011;16877;48.810;9.282;2023-04-25T09:50:31;3.00;;;2.03;;
1366;SDS011;16877;48.810;9.282;2023-04-25T09:53:04;2.50;;;1.83;;
1366;SDS011;16877;48.810;9.282;2023-04-25T09:55:43;3.23;;;1.77;;
1366;SDS011;16877;48.810;9.282;2023-04-25T09:58:12;3.17;;;2.60;;
1366;SDS011;16877;48.810;9.282;2023-04-25T10:00:42;3.10;;;2.13;;
1366;SDS011;16877;48.810;9.282;2023-04-25T10:03:10;3.07;;;2.17;;
1366;SDS011;16877;48.810;9.282;2023-04-25T10:05:52;3.00;;;2.50;;
1366;SDS011;16877;48.810;9.282;2023-04-25T10:08:27;2.90;;;1.67;;
1366;SDS011;16877;48.810;9.282;2023-04-25T10:10:59;2.63;;;2.07;;
1366;SDS011;16877;48.810;9.282;2023-04-25T10:13:28;4.00;;;2.10;;
1366;SDS011;16877;48.810;9.282;2023-04-25T10:15:56;2.80;;;1.57;;
1366;SDS011;16877;48.810;9.282;2023-04-25T10:18:25;2.40;;;1.40;;
1366;SDS011;16877;48.810;9.282;2023-04-25T10:20:57;4.53;;;1.70;;
1366;SDS011;16877;48.810;9.282;2023-04-25T10:23:26;2.37;;;1.33;;
1366;SDS011;16877;48.810;9.282;2023-04-25T10:25:56;1.90;;;1.00;;
1366;SDS011;16877;48.810;9.282;2023-04-25T10:28:25;2.20;;;1.33;;
1366;SDS011;16877;48.810;9.282;2023-04-25T10:30:58;1.90;;;1.00;;
1366;SDS011;16877;48.810;9.282;2023-04-25T10:33:30;2.10;;;1.20;;
1366;SDS011;16877;48.810;9.282;2023-04-25T10:36:24;2.50;;;1.53;;
1366;SDS011;16877;48.810;9.282;2023-04-25T10:39:02;2.13;;;1.30;;
1366;SDS011;16877;48.810;9.282;2023-04-25T10:41:45;2.40;;;1.60;;
1366;SDS011;16877;48.810;9.282;2023-04-25T10:44:13;2.67;;;1.87;;
1366;SDS011;16877;48.810;9.282;2023-04-25T10:46:41;2.00;;;1.30;;
1366;SDS011;16877;48.810;9.282;2023-04-25T10:49:28;2.03;;;1.20;;
1366;SDS011;16877;48.810;9.282;2023-04-25T10:55:23;2.80;;;1.77;;
1366;SDS011;16877;48.810;9.282;2023-04-25T10:57:58;2.80;;;1.73;;
1366;SDS011;16877;48.810;9.282;2023-04-25T11:00:27;2.00;;;1.23;;
1366;SDS011;16877;48.810;9.282;2023-04-25T11:03:04;2.90;;;2.00;;
1366;SDS011;16877;48.810;9.282;2023-04-25T11:05:34;2.33;;;1.40;;
1366;SDS011;16877;48.810;9.282;2023-04-25T11:08:03;2.37;;;1.63;;
1366;SDS011;16877;48.810;9.282;2023-04-25T11:10:41;2.90;;;1.70;;
1366;SDS011;16877;48.810;9.282;2023-04-25T11:13:16;3.10;;;1.60;;
1366;SDS011;16877;48.810;9.282;2023-04-25T11:15:44;2.67;;;1.70;;
1366;SDS011;16877;48.810;9.282;2023-04-25T11:18:27;2.50;;;1.50;;
1366;SDS011;16877;48.810;9.282;2023-04-25T11:20:58;2.87;;;1.80;;
1366;SDS011;16877;48.810;9.282;2023-04-25T11:23:27;2.97;;;1.90;;
1366;SDS011;16877;48.810;9.282;2023-04-25T11:25:56;3.00;;;1.63;;
1366;SDS011;16877;48.810;9.282;2023-04-25T11:28:26;2.70;;;1.70;;
1366;SDS011;16877;48.810;9.282;2023-04-25T11:30:53;3.60;;;2.20;;
1366;SDS011;16877;48.810;9.282;2023-04-25T11:33:23;2.17;;;1.23;;
1366;SDS011;16877;48.810;9.282;2023-04-25T11:35:56;2.13;;;1.33;;
1366;SDS011;16877;48.810;9.282;2023-04-25T11:38:25;2.83;;;1.30;;
1366;SDS011;16877;48.810;9.282;2023-04-25T11:40:52;2.17;;;1.37;;
1366;SDS011;16877;48.810;9.282;2023-04-25T11:43:21;2.10;;;1.40;;
1366;SDS011;16877;48.810;9.282;2023-04-25T11:45:49;3.57;;;2.00;;
1366;SDS011;16877;48.810;9.282;2023-04-25T11:48:17;3.07;;;1.70;;
1366;SDS011;16877;48.810;9.282;2023-04-25T11:50:46;2.50;;;1.50;;
1366;SDS011;16877;48.810;9.282;2023-04-25T11:53:13;2.37;;;1.50;;
1366;SDS011;16877;48.810;9.282;2023-04-25T11:55:41;2.53;;;1.47;;
1366;SDS011;16877;48.810;9.282;2023-04-25T11:58:08;1.93;;;1.10;;
1366;SDS011;16877;48.810;9.282;2023-04-25T12:00:37;2.53;;;1.53;;
1366;SDS011;16877;48.810;9.282;2023-04-25T12:03:08;2.70;;;1.53;;
1366;SDS011;16877;48.810;9.282;2023-04-25T12:05:36;2.30;;;1.60;;
1366;SDS011;16877;48.810;9.282;2023-04-25T12:08:11;2.83;;;1.93;;
1366;SDS011;16877;48.810;9.282;2023-04-25T12:10:39;2.30;;;1.53;;
1366;SDS011;16877;48.810;9.282;2023-04-25T12:13:17;2.30;;;1.60;;
1366;SDS011;16877;48.810;9.282;2023-04-25T12:15:48;2.40;;;1.63;;
1366;SDS011;16877;48.810;9.282;2023-04-25T12:18:18;3.00;;;1.97;;
1366;SDS011;16877;48.810;9.282;2023-04-25T12:20:46;2.73;;;2.13;;
1366;SDS011;16877;48.810;9.282;2023-04-25T12:23:13;2.67;;;1.80;;
1366;SDS011;16877;48.810;9.282;2023-04-25T12:25:41;2.80;;;1.40;;
1366;SDS011;16877;48.810;9.282;2023-04-25T12:28:10;2.80;;;2.03;;
1366;SDS011;16877;48.810;9.282;2023-04-25T12:30:56;3.00;;;1.90;;
1366;SDS011;16877;48.810;9.282;2023-04-25T12:33:24;2.77;;;1.73;;
1366;SDS011;16877;48.810;9.282;2023-04-25T12:35:52;4.70;;;2.50;;
1366;SDS011;16877;48.810;9.282;2023-04-25T12:38:23;2.90;;;2.20;;
1366;SDS011;16877;48.810;9.282;2023-04-25T12:40:51;3.77;;;2.27;;
1366;SDS011;16877;48.810;9.282;2023-04-25T12:43:19;3.43;;;2.27;;
1366;SDS011;16877;48.810;9.282;2023-04-25T12:45:47;2.57;;;1.83;;
1366;SDS011;16877;48.810;9.282;2023-04-25T12:48:17;4.40;;;2.20;;
1366;SDS011;16877;48.810;9.282;2023-04-25T12:50:45;4.17;;;3.00;;
1366;SDS011;16877;48.810;9.282;2023-04-25T12:53:14;3.10;;;2.33;;
1366;SDS011;16877;48.810;9.282;2023-04-25T12:55:41;4.33;;;3.43;;
1366;SDS011;16877;48.810;9.282;2023-04-25T12:58:11;3.27;;;2.47;;
1366;SDS011;16877;48.810;9.282;2023-04-25T13:00:38;4.23;;;2.83;;
1366;SDS011;16877;48.810;9.282;2023-04-25T13:03:05;4.30;;;3.20;;
1366;SDS011;16877;48.810;9.282;2023-04-25T13:05:34;5.20;;;3.30;;
1366;SDS011;16877;48.810;9.282;2023-04-25T13:08:02;5.50;;;3.40;;
1366;SDS011;16877;48.810;9.282;2023-04-25T13:10:29;3.90;;;3.40;;
1366;SDS011;16877;48.810;9.282;2023-04-25T13:12:59;4.60;;;3.43;;
1366;SDS011;16877;48.810;9.282;2023-04-25T13:15:26;5.67;;;3.50;;
1366;SDS011;16877;48.810;9.282;2023-04-25T13:17:53;3.20;;;2.70;;
1366;SDS011;16877;48.810;9.282;2023-04-25T13:20:21;5.03;;;3.30;;
1366;SDS011;16877;48.810;9.282;2023-04-25T13:22:50;3.73;;;3.37;;
1366;SDS011;16877;48.810;9.282;2023-04-25T13:25:17;4.30;;;2.60;;
1366;SDS011;16877;48.810;9.282;2023-04-25T13:27:47;4.73;;;2.90;;
1366;SDS011;16877;48.810;9.282;2023-04-25T13:30:14;3.80;;;2.63;;
1366;SDS011;16877;48.810;9.282;2023-04-25T13:32:42;5.27;;;2.93;;
1366;SDS011;16877;48.810;9.282;2023-04-25T13:35:11;3.20;;;2.90;;
1366;SDS011;16877;48.810;9.282;2023-04-25T13:37:40;3.50;;;2.60;;
1366;SDS011;16877;48.810;9.282;2023-04-25T13:40:10;3.80;;;3.00;;
1366;SDS011;16877;48.810;9.282;2023-04-25T13:42:38;3.93;;;2.70;;
1366;SDS011;16877;48.810;9.282;2023-04-25T13:45:06;3.63;;;2.57;;
1366;SDS011;16877;48.810;9.282;2023-04-25T13:47:35;4.87;;;3.10;;
1366;SDS011;16877;48.810;9.282;2023-04-25T13:50:07;5.47;;;2.40;;
1366;SDS011;16877;48.810;9.282;2023-04-25T13:52:43;6.73;;;3.47;;
1366;SDS011;16877;48.810;9.282;2023-04-25T13:58:23;3.40;;;2.70;;
1366;SDS011;16877;48.810;9.282;2023-04-25T14:00:55;5.30;;;3.27;;
1366;SDS011;16877;48.810;9.282;2023-04-25T14:03:30;3.97;;;2.73;;
1366;SDS011;16877;48.810;9.282;2023-04-25T14:05:58;4.40;;;2.60;;
1366;SDS011;16877;48.810;9.282;2023-04-25T14:08:26;4.00;;;3.30;;
1366;SDS011;16877;48.810;9.282;2023-04-25T14:10:55;4.80;;;2.90;;
1366;SDS011;16877;48.810;9.282;2023-04-25T14:13:27;5.27;;;3.73;;
1366;SDS011;16877;48.810;9.282;2023-04-25T14:15:54;3.83;;;2.70;;
1366;SDS011;16877;48.810;9.282;2023-04-25T14:18:23;5.43;;;3.60;;
1366;SDS011;16877;48.810;9.282;2023-04-25T14:20:52;4.60;;;3.60;;
1366;SDS011;16877;48.810;9.282;2023-04-25T14:23:19;5.40;;;4.10;;
1366;SDS011;16877;48.810;9.282;2023-04-25T14:25:49;6.70;;;3.97;;
1366;SDS011;16877;48.810;9.282;2023-04-25T14:28:17;6.30;;;3.83;;
1366;SDS011;16877;48.810;9.282;2023-04-25T14:30:47;4.23;;;3.50;;
1366;SDS011;16877;48.810;9.282;2023-04-25T14:33:15;3.90;;;2.67;;
1366;SDS011;16877;48.810;9.282;2023-04-25T14:35:42;4.80;;;3.30;;
1366;SDS011;16877;48.810;9.282;2023-04-25T14:38:10;5.13;;;2.93;;
1366;SDS011;16877;48.810;9.282;2023-04-25T14:40:39;3.70;;;2.40;;
1366;SDS011;16877;48.810;9.282;2023-04-25T14:43:15;5.63;;;2.50;;
1366;SDS011;16877;48.810;9.282;2023-04-25T14:45:44;3.83;;;2.80;;
1366;SDS011;16877;48.810;9.282;2023-04-25T14:48:29;4.10;;;2.80;;
1366;SDS011;16877;48.810;9.282;2023-04-25T14:50:57;3.10;;;2.30;;
1366;SDS011;16877;48.810;9.282;2023-04-25T14:53:28;4.47;;;2.73;;
1366;SDS011;16877;48.810;9.282;2023-04-25T14:55:59;3.67;;;2.60;;
1366;SDS011;16877;48.810;9.282;2023-04-25T14:58:31;3.87;;;2.63;;
1366;SDS011;16877;48.810;9.282;2023-04-25T15:01:30;3.60;;;2.57;;
1366;SDS011;16877;48.810;9.282;2023-04-25T15:04:04;3.23;;;2.50;;
1366;SDS011;16877;48.810;9.282;2023-04-25T15:06:35;3.63;;;3.00;;
1366;SDS011;16877;48.810;9.282;2023-04-25T15:09:08;3.97;;;2.50;;
1366;SDS011;16877;48.810;9.282;2023-04-25T15:11:42;4.83;;;2.47;;
1366;SDS011;16877;48.810;9.282;2023-04-25T15:14:12;4.13;;;2.70;;
1366;SDS011;16877;48.810;9.282;2023-04-25T15:16:40;3.60;;;2.63;;
1366;SDS011;16877;48.810;9.282;2023-04-25T15:19:10;5.97;;;2.53;;
1366;SDS011;16877;48.810;9.282;2023-04-25T15:21:39;5.17;;;2.90;;
1366;SDS011;16877;48.810;9.282;2023-04-25T15:24:10;3.40;;;2.57;;